KDNS

Denison Municipal Airport

Denison, Iowa, USA
METAR KDNS 151555Z AUTO 15005KT 10SM CLR M01/M02 A3018 RMK AO2
Observed Flight Rules
Dec-15 @ 15:55 UTC (11 minutes ago) Visual Flight Rules
Wind Visibility Clouds
150° at 5 knots 10 miles
  • Clear skies
Temperatures Readings
Current -1°C / 30°F
Dewpoint -2°C / 28°F
Humidity 93%
Altimeter 30.18" Hg
Pressure 1022 hPa
Elevation 388
METAR KDNS 151555Z AUTO 15005KT 10SM CLR M01/M02 A3018 RMK AO2
Observed Flight Rules
Dec-15 @ 15:55 UTC
(11 minutes ago)
VFR
Wind Visibility
150° at 5 knots 10 miles
Clouds
  • Clear skies
Temperature Dewpoint
-1°C / 30°F -2°C / 28°F
Humidity Altimeter Pressure
93% 30.18" Hg 1022 hPa